createdAt,value
2017-12-30T00:00:54.936Z,49.57
2017-12-30T00:03:21.932Z,51.03
2017-12-30T00:05:48.506Z,52.80
2017-12-30T00:08:14.899Z,50.30
2017-12-30T00:10:43.946Z,48.80
2017-12-30T00:13:10.340Z,50.50
2017-12-30T00:28:41.735Z,55.50
2017-12-30T00:31:08.118Z,52.83
2017-12-30T00:33:35.620Z,52.90
2017-12-30T00:36:02.412Z,58.93
2017-12-30T00:48:19.338Z,62.20
2017-12-30T00:50:45.922Z,67.13
2017-12-30T00:53:12.780Z,65.35
2017-12-30T00:55:39.330Z,71.23
2017-12-30T00:58:06.406Z,70.05
2017-12-30T01:00:33.351Z,75.40
2017-12-30T01:02:59.569Z,97.00
2017-12-30T01:10:19.772Z,183.25
2017-12-30T01:12:47.001Z,44.25
2017-12-30T01:15:14.752Z,101.30
2017-12-30T01:17:42.860Z,74.40
2017-12-30T01:29:54.838Z,3.67
2017-12-30T01:32:21.821Z,3.70
2017-12-30T01:34:49.393Z,4.50
2017-12-30T01:37:15.616Z,3.20
2017-12-30T01:39:42.825Z,3.92
2017-12-30T01:42:09.596Z,4.15
2017-12-30T01:44:36.052Z,3.53
2017-12-30T01:47:03.338Z,2.90
2017-12-30T01:49:31.044Z,3.50
2017-12-30T01:51:58.859Z,3.92
2017-12-30T01:54:25.925Z,3.10
2017-12-30T01:56:52.153Z,4.10
2017-12-30T01:59:19.385Z,4.32
2017-12-30T02:01:46.349Z,5.47
2017-12-30T02:04:12.750Z,3.10
2017-12-30T02:06:39.774Z,3.17
2017-12-30T02:09:06.014Z,3.67
2017-12-30T02:11:33.007Z,3.05
2017-12-30T02:14:00.635Z,3.58
2017-12-30T02:16:28.145Z,3.12
2017-12-30T02:18:54.781Z,2.47
2017-12-30T02:21:22.362Z,3.03
2017-12-30T02:23:49.624Z,3.42
2017-12-30T02:26:16.602Z,6.03
2017-12-30T02:28:43.358Z,6.55
2017-12-30T02:31:10.381Z,4.47
2017-12-30T02:33:38.080Z,5.55
2017-12-30T02:36:05.152Z,3.62
2017-12-30T02:38:31.362Z,3.08
2017-12-30T02:40:58.190Z,6.57
2017-12-30T02:43:24.978Z,4.10
2017-12-30T02:45:52.669Z,3.70
2017-12-30T02:48:19.494Z,3.72
2017-12-30T02:50:48.009Z,3.47
2017-12-30T02:53:14.516Z,5.25
2017-12-30T02:55:41.619Z,4.00
2017-12-30T02:58:07.875Z,6.37
2017-12-30T03:00:34.258Z,4.25
2017-12-30T03:03:01.849Z,3.83
2017-12-30T03:05:28.077Z,6.18
2017-12-30T03:07:54.618Z,3.72
2017-12-30T03:10:21.603Z,4.05
2017-12-30T03:12:48.075Z,4.15
2017-12-30T03:15:15.229Z,8.73
2017-12-30T03:17:41.579Z,7.30
2017-12-30T03:20:08.339Z,3.95
2017-12-30T03:22:35.357Z,4.60
2017-12-30T03:25:02.025Z,4.60
2017-12-30T03:27:29.588Z,3.40
2017-12-30T03:29:57.080Z,3.90
2017-12-30T03:32:23.282Z,4.68
2017-12-30T03:34:50.828Z,5.30
2017-12-30T03:37:18.086Z,3.28
2017-12-30T03:39:45.131Z,5.00
2017-12-30T03:42:12.118Z,5.15
2017-12-30T03:44:38.324Z,6.25
2017-12-30T03:47:05.077Z,5.45
2017-12-30T03:49:31.294Z,6.10
2017-12-30T03:51:58.655Z,5.00
2017-12-30T03:54:25.027Z,5.55
2017-12-30T03:56:51.582Z,4.70
2017-12-30T03:59:19.186Z,6.72
2017-12-30T04:01:46.138Z,6.75
2017-12-30T04:04:13.109Z,7.25
2017-12-30T04:06:40.070Z,8.90
2017-12-30T04:09:07.926Z,7.55
2017-12-30T04:11:34.705Z,6.85
2017-12-30T04:14:01.346Z,6.50
2017-12-30T04:16:28.905Z,6.85
2017-12-30T04:18:55.617Z,6.50
2017-12-30T04:21:21.876Z,6.55
2017-12-30T04:23:48.627Z,6.18
2017-12-30T04:26:14.837Z,8.20
2017-12-30T04:28:41.045Z,6.18
2017-12-30T04:31:08.491Z,10.88
2017-12-30T04:33:35.487Z,8.05
2017-12-30T04:36:01.708Z,9.43
2017-12-30T04:38:28.017Z,8.73
2017-12-30T04:40:55.043Z,8.23
2017-12-30T04:43:21.999Z,5.32
2017-12-30T04:45:49.523Z,7.55
2017-12-30T04:48:16.731Z,6.60
2017-12-30T04:50:44.494Z,8.25
2017-12-30T04:53:10.732Z,6.95
2017-12-30T04:55:36.963Z,8.30
2017-12-30T04:58:05.040Z,8.15
2017-12-30T05:00:31.488Z,9.40
2017-12-30T05:02:58.912Z,6.70
2017-12-30T05:05:25.639Z,8.60
2017-12-30T05:07:53.358Z,6.75
2017-12-30T05:10:20.101Z,10.52
2017-12-30T05:12:46.985Z,8.27
2017-12-30T05:15:13.268Z,12.48
2017-12-30T05:17:39.639Z,10.30
2017-12-30T05:20:07.140Z,8.20
2017-12-30T05:22:33.362Z,9.55
2017-12-30T05:25:00.188Z,8.25
2017-12-30T05:27:26.414Z,9.45
2017-12-30T05:29:53.234Z,6.93
2017-12-30T05:32:20.215Z,10.45
2017-12-30T05:34:47.476Z,9.73
2017-12-30T05:37:14.024Z,7.30
2017-12-30T05:39:40.583Z,9.80
2017-12-30T05:42:07.347Z,9.82
2017-12-30T05:44:34.319Z,12.55
2017-12-30T05:47:02.127Z,9.73
2017-12-30T05:49:29.503Z,10.13
2017-12-30T05:51:56.528Z,7.60
2017-12-30T05:54:23.877Z,10.02
2017-12-30T05:56:50.362Z,12.45
2017-12-30T05:59:17.385Z,11.60
2017-12-30T06:01:44.495Z,9.70
2017-12-30T06:04:11.216Z,10.90
2017-12-30T06:06:37.533Z,9.48
2017-12-30T06:09:03.983Z,13.30
2017-12-30T06:11:31.922Z,11.30
2017-12-30T06:13:58.161Z,11.90
2017-12-30T06:16:24.934Z,17.90
2017-12-30T06:18:51.730Z,17.15
2017-12-30T06:21:18.804Z,14.38
2017-12-30T06:23:45.051Z,13.80
2017-12-30T06:26:11.752Z,14.82
2017-12-30T06:28:38.024Z,19.08
2017-12-30T06:31:04.221Z,16.60
2017-12-30T06:33:31.134Z,13.50
2017-12-30T06:35:58.439Z,15.70
2017-12-30T06:38:25.718Z,10.75
2017-12-30T06:40:52.846Z,15.40
2017-12-30T06:43:20.240Z,11.70
2017-12-30T06:45:48.029Z,15.45
2017-12-30T06:48:15.900Z,11.80
2017-12-30T06:50:42.626Z,14.80
2017-12-30T06:53:09.274Z,11.80
2017-12-30T06:55:36.363Z,12.90
2017-12-30T06:58:03.216Z,18.48
2017-12-30T07:00:29.496Z,16.77
2017-12-30T07:02:55.724Z,13.82
2017-12-30T07:05:23.022Z,15.85
2017-12-30T07:07:49.994Z,15.35
2017-12-30T07:10:17.928Z,11.50
2017-12-30T07:12:44.527Z,25.52
2017-12-30T07:15:11.470Z,19.92
2017-12-30T07:17:37.857Z,20.45
2017-12-30T07:20:05.519Z,18.62
2017-12-30T07:22:32.608Z,14.13
2017-12-30T07:24:58.940Z,15.85
2017-12-30T07:27:25.128Z,18.83
2017-12-30T07:29:52.094Z,20.12
2017-12-30T07:32:18.810Z,22.15
2017-12-30T07:51:00.228Z,24.15
2017-12-30T07:53:26.460Z,25.95
2017-12-30T07:55:53.082Z,29.77
2017-12-30T07:58:20.455Z,31.95
2017-12-30T08:00:48.063Z,29.10
2017-12-30T08:05:48.063Z,20.52
2017-12-30T08:08:14.384Z,19.37
2017-12-30T08:10:40.599Z,25.50
2017-12-30T08:13:07.036Z,20.05
2017-12-30T08:15:34.200Z,19.35
2017-12-30T08:18:01.636Z,20.58
2017-12-30T08:20:28.714Z,18.45
2017-12-30T08:22:55.517Z,17.20
2017-12-30T08:25:22.593Z,18.17
2017-12-30T08:27:48.804Z,12.95
2017-12-30T08:30:15.521Z,14.93
2017-12-30T08:32:43.227Z,14.70
2017-12-30T08:35:09.536Z,15.40
2017-12-30T08:37:35.774Z,22.20
2017-12-30T08:40:02.179Z,19.27
2017-12-30T08:42:28.434Z,22.15
2017-12-30T08:44:54.711Z,21.48
2017-12-30T08:47:20.950Z,21.40
2017-12-30T08:49:48.497Z,16.95
2017-12-30T08:52:15.298Z,19.17
2017-12-30T08:54:41.542Z,17.27
2017-12-30T08:57:07.759Z,36.83
2017-12-30T08:59:34.272Z,17.20
2017-12-30T09:02:01.851Z,20.90
2017-12-30T09:04:28.961Z,22.33
2017-12-30T09:06:55.299Z,20.15
2017-12-30T09:09:21.955Z,22.35
2017-12-30T09:11:48.990Z,17.50
2017-12-30T09:14:15.262Z,21.65
2017-12-30T09:16:41.991Z,22.45
2017-12-30T09:19:09.724Z,22.62
2017-12-30T09:21:36.907Z,22.20
2017-12-30T09:24:03.135Z,38.90
2017-12-30T09:26:29.579Z,36.78
2017-12-30T09:28:56.757Z,39.08
2017-12-30T09:31:22.972Z,41.00
2017-12-30T09:33:49.235Z,34.20
2017-12-30T09:36:15.562Z,24.05
2017-12-30T09:38:42.146Z,23.33
2017-12-30T09:41:09.334Z,25.23
2017-12-30T09:43:36.298Z,28.92
2017-12-30T09:46:02.537Z,22.77
2017-12-30T09:48:28.750Z,22.30
2017-12-30T09:50:56.005Z,30.83
2017-12-30T09:53:22.271Z,33.10
2017-12-30T09:55:49.236Z,26.87
2017-12-30T09:58:16.239Z,30.75
2017-12-30T10:00:42.487Z,31.23
2017-12-30T10:03:08.749Z,23.92
2017-12-30T10:05:35.748Z,28.87
2017-12-30T10:08:01.973Z,18.23
2017-12-30T10:10:28.858Z,20.80
2017-12-30T10:12:55.351Z,13.98
2017-12-30T10:15:22.190Z,21.83
2017-12-30T10:17:48.480Z,14.68
2017-12-30T10:20:15.592Z,11.75
2017-12-30T10:22:43.442Z,11.48
2017-12-30T10:25:09.816Z,17.58
2017-12-30T10:27:36.786Z,13.98
2017-12-30T10:30:03.051Z,12.48
2017-12-30T10:32:29.389Z,14.63
2017-12-30T10:34:55.609Z,18.05
2017-12-30T10:37:22.776Z,18.83
2017-12-30T10:39:48.963Z,13.88
2017-12-30T10:42:15.202Z,13.88
2017-12-30T10:44:41.446Z,12.55
2017-12-30T10:47:07.926Z,15.13
2017-12-30T10:49:36.127Z,13.88
2017-12-30T10:52:04.157Z,10.68
2017-12-30T10:54:30.652Z,14.63
2017-12-30T10:56:58.022Z,18.65
2017-12-30T10:59:25.054Z,12.02
2017-12-30T11:01:51.775Z,15.55
2017-12-30T11:04:18.811Z,7.90
2017-12-30T11:06:45.109Z,6.50
2017-12-30T11:09:11.337Z,10.43
2017-12-30T11:11:38.439Z,12.15
2017-12-30T11:14:06.918Z,6.82
2017-12-30T11:16:33.769Z,10.30
2017-12-30T11:18:59.982Z,8.30
2017-12-30T11:21:26.186Z,6.62
2017-12-30T11:23:52.798Z,7.82
2017-12-30T11:26:19.989Z,13.15
2017-12-30T11:28:46.245Z,11.23
2017-12-30T11:31:12.751Z,10.05
2017-12-30T11:33:40.358Z,7.03
2017-12-30T11:36:06.721Z,9.00
2017-12-30T11:38:33.947Z,8.27
2017-12-30T11:41:00.271Z,8.27
2017-12-30T11:43:26.617Z,7.68
2017-12-30T11:45:53.636Z,7.47
2017-12-30T11:48:19.946Z,7.68
2017-12-30T11:50:46.142Z,5.82
2017-12-30T11:53:13.021Z,4.45
2017-12-30T11:55:39.788Z,10.20
2017-12-30T11:58:06.556Z,6.35
2017-12-30T12:00:33.506Z,6.90
2017-12-30T12:03:00.425Z,5.50
2017-12-30T12:05:26.708Z,6.37
2017-12-30T12:07:53.202Z,5.72
2017-12-30T12:10:20.813Z,8.30
2017-12-30T12:12:47.564Z,6.50
2017-12-30T12:15:14.106Z,8.30
2017-12-30T12:17:41.890Z,9.90
2017-12-30T12:20:08.101Z,8.68
2017-12-30T12:22:34.312Z,9.73
2017-12-30T12:25:00.537Z,8.57
2017-12-30T12:27:26.810Z,6.50
2017-12-30T12:29:54.189Z,4.85
2017-12-30T12:32:20.629Z,7.45
2017-12-30T12:34:47.840Z,7.30
2017-12-30T12:37:14.859Z,8.65
2017-12-30T12:39:41.179Z,9.90
2017-12-30T12:42:07.434Z,9.23
2017-12-30T12:44:33.639Z,22.30
2017-12-30T12:46:59.917Z,53.47
2017-12-30T12:49:27.638Z,19.00
2017-12-30T12:51:55.804Z,9.23
2017-12-30T12:54:22.062Z,10.85
2017-12-30T12:56:49.386Z,14.02
2017-12-30T12:59:15.641Z,10.48
2017-12-30T13:01:41.950Z,10.73
2017-12-30T13:04:08.447Z,10.20
2017-12-30T13:06:35.438Z,9.13
2017-12-30T13:09:01.683Z,12.63
2017-12-30T13:11:28.511Z,7.75
2017-12-30T13:13:54.718Z,9.57
2017-12-30T13:16:21.318Z,12.40
2017-12-30T13:18:48.560Z,11.35
2017-12-30T13:21:15.631Z,9.40
2017-12-30T13:23:42.269Z,10.75
2017-12-30T13:26:09.332Z,18.05
2017-12-30T13:28:35.657Z,21.10
2017-12-30T13:31:01.926Z,16.87
2017-12-30T13:33:28.890Z,36.65
2017-12-30T13:35:56.276Z,16.17
2017-12-30T13:38:23.798Z,163.93
2017-12-30T13:40:50.787Z,54.63
2017-12-30T13:43:17.261Z,7.97
2017-12-30T13:45:43.471Z,11.32
2017-12-30T13:48:09.786Z,8.43
2017-12-30T13:50:35.998Z,10.63
2017-12-30T13:53:02.480Z,53.40
2017-12-30T13:55:30.130Z,13.68
2017-12-30T13:57:56.990Z,8.60
2017-12-30T14:00:24.051Z,17.20
2017-12-30T14:02:51.138Z,34.75
2017-12-30T14:05:18.177Z,23.55
2017-12-30T14:07:44.487Z,10.02
2017-12-30T14:10:11.770Z,7.55
2017-12-30T14:12:39.415Z,8.13
2017-12-30T14:15:05.922Z,34.63
2017-12-30T14:17:33.076Z,8.35
2017-12-30T14:20:00.864Z,11.68
2017-12-30T14:22:27.344Z,7.07
2017-12-30T14:24:54.458Z,8.65
2017-12-30T14:27:20.683Z,9.82
2017-12-30T14:29:46.969Z,6.00
2017-12-30T14:32:13.612Z,5.60
2017-12-30T14:34:40.771Z,6.15
2017-12-30T14:37:07.840Z,12.90
2017-12-30T14:39:34.072Z,12.50
2017-12-30T14:42:00.292Z,9.65
2017-12-30T14:44:26.634Z,6.65
2017-12-30T14:46:52.894Z,14.07
2017-12-30T14:49:20.189Z,11.68
2017-12-30T14:51:47.234Z,8.05
2017-12-30T14:54:14.242Z,12.75
2017-12-30T14:56:40.482Z,15.35
2017-12-30T14:59:06.686Z,9.00
2017-12-30T15:01:33.055Z,7.03
2017-12-30T15:04:00.670Z,14.23
2017-12-30T15:06:27.483Z,15.43
2017-12-30T15:08:54.157Z,17.12
2017-12-30T15:11:20.678Z,21.60
2017-12-30T15:13:50.016Z,28.58
2017-12-30T15:16:16.221Z,25.20
2017-12-30T15:21:15.540Z,13.23
2017-12-30T15:23:42.779Z,16.95
2017-12-30T15:26:09.135Z,17.73
2017-12-30T15:28:35.380Z,15.20
2017-12-30T15:31:02.588Z,22.77
2017-12-30T15:33:30.702Z,42.15
2017-12-30T15:35:58.309Z,12.15
2017-12-30T15:38:24.700Z,19.70
2017-12-30T15:40:52.193Z,15.50
2017-12-30T15:43:18.757Z,24.15
2017-12-30T15:45:46.238Z,20.85
2017-12-30T15:48:12.823Z,19.08
2017-12-30T15:50:40.444Z,21.12
2017-12-30T15:53:07.423Z,31.37
2017-12-30T15:55:33.646Z,26.85
2017-12-30T15:58:00.672Z,16.45
2017-12-30T16:00:27.798Z,51.63
2017-12-30T16:02:54.091Z,22.67
2017-12-30T16:05:20.302Z,22.23
2017-12-30T16:07:47.307Z,16.95
2017-12-30T16:10:13.510Z,17.98
2017-12-30T16:12:40.664Z,12.15
2017-12-30T16:15:07.458Z,13.18
2017-12-30T16:17:33.720Z,12.05
2017-12-30T16:19:59.982Z,14.45
2017-12-30T16:22:26.976Z,17.23
2017-12-30T16:24:53.247Z,9.68
2017-12-30T16:27:19.839Z,16.15
2017-12-30T16:29:46.057Z,12.85
2017-12-30T16:32:12.280Z,14.93
2017-12-30T16:34:39.095Z,9.65
2017-12-30T16:37:05.377Z,12.32
2017-12-30T16:39:32.604Z,12.98
2017-12-30T16:41:58.916Z,13.45
2017-12-30T16:44:26.160Z,15.07
2017-12-30T16:46:53.146Z,24.37
2017-12-30T16:49:19.490Z,14.05
2017-12-30T16:51:45.714Z,15.35
2017-12-30T16:54:12.578Z,19.27
2017-12-30T16:56:39.321Z,23.15
2017-12-30T16:59:05.980Z,17.35
2017-12-30T17:01:33.519Z,19.85
2017-12-30T17:04:00.303Z,23.98
2017-12-30T17:06:26.545Z,16.27
2017-12-30T17:08:53.893Z,17.87
2017-12-30T17:11:20.798Z,26.02
2017-12-30T17:13:47.264Z,109.85
2017-12-30T17:16:14.311Z,38.72
2017-12-30T17:18:41.048Z,29.75
2017-12-30T17:21:07.640Z,26.80
2017-12-30T17:23:35.233Z,28.08
2017-12-30T17:26:02.435Z,26.60
2017-12-30T17:28:28.694Z,28.73
2017-12-30T17:30:56.233Z,22.90
2017-12-30T17:33:23.028Z,32.72
2017-12-30T17:35:49.868Z,29.52
2017-12-30T17:38:16.429Z,42.20
2017-12-30T17:40:43.628Z,33.20
2017-12-30T17:43:11.192Z,31.17
2017-12-30T17:45:37.474Z,18.42
2017-12-30T17:48:04.885Z,28.17
2017-12-30T17:50:32.028Z,36.70
2017-12-30T17:52:59.064Z,34.13
2017-12-30T17:55:26.097Z,30.50
2017-12-30T17:57:52.334Z,26.25
2017-12-30T18:00:18.822Z,30.42
2017-12-30T18:02:45.429Z,22.45
2017-12-30T18:05:12.799Z,30.20
2017-12-30T18:07:39.590Z,24.48
2017-12-30T18:10:05.936Z,23.55
2017-12-30T18:12:32.701Z,22.37
2017-12-30T18:14:59.495Z,17.58
2017-12-30T18:17:26.439Z,19.25
2017-12-30T18:19:53.376Z,21.12
2017-12-30T18:22:21.148Z,18.23
2017-12-30T18:24:47.384Z,25.90
2017-12-30T18:27:13.993Z,20.17
2017-12-30T18:29:45.232Z,25.00
2017-12-30T18:32:11.505Z,21.25
2017-12-30T18:34:41.805Z,17.73
2017-12-30T18:37:08.884Z,21.98
2017-12-30T18:39:37.039Z,32.75
2017-12-30T18:42:04.000Z,23.45
2017-12-30T18:44:31.863Z,20.30
2017-12-30T18:47:00.954Z,22.10
2017-12-30T18:49:27.823Z,17.17
2017-12-30T18:51:55.786Z,20.65
2017-12-30T18:54:23.161Z,16.73
2017-12-30T18:56:50.180Z,23.17
2017-12-30T18:59:17.342Z,21.33
2017-12-30T19:01:53.373Z,17.77
2017-12-30T19:04:23.850Z,16.83
2017-12-30T19:06:50.649Z,32.33
2017-12-30T19:09:18.378Z,22.25
2017-12-30T19:11:45.347Z,21.08
2017-12-30T19:30:32.749Z,27.50
2017-12-30T19:33:01.373Z,24.00
2017-12-30T19:35:29.274Z,24.60
2017-12-30T19:37:56.355Z,35.80
2017-12-30T19:40:24.982Z,28.92
2017-12-30T19:42:52.815Z,25.70
2017-12-30T19:45:20.231Z,28.48
2017-12-30T19:47:49.318Z,23.90
2017-12-30T19:50:16.566Z,35.30
2017-12-30T19:52:44.825Z,103.55
2017-12-30T19:55:18.110Z,26.62
2017-12-30T19:57:46.750Z,26.37
2017-12-30T20:00:15.033Z,26.90
2017-12-30T20:02:42.634Z,29.27
2017-12-30T20:05:10.330Z,31.70
2017-12-30T20:07:37.516Z,24.67
2017-12-30T20:10:09.621Z,28.48
2017-12-30T20:12:39.652Z,58.95
2017-12-30T20:15:10.673Z,31.87
2017-12-30T20:17:40.555Z,23.23
2017-12-30T20:20:06.943Z,25.70
2017-12-30T20:22:33.574Z,29.05
2017-12-30T20:27:49.489Z,19.17
2017-12-30T20:30:16.319Z,23.45
2017-12-30T20:32:53.620Z,31.02
2017-12-30T20:35:35.680Z,26.92
2017-12-30T20:38:11.107Z,24.50
2017-12-30T20:40:39.134Z,25.40
2017-12-30T20:43:10.916Z,24.60
2017-12-30T20:51:00.378Z,25.27
2017-12-30T20:53:37.868Z,20.33
2017-12-30T20:56:31.132Z,24.77
2017-12-30T20:58:57.463Z,25.50
2017-12-30T21:01:25.590Z,21.00
2017-12-30T21:03:52.560Z,70.90
2017-12-30T21:06:19.943Z,22.70
2017-12-30T21:08:47.621Z,21.15
2017-12-30T21:11:15.298Z,36.53
2017-12-30T21:13:42.753Z,27.20
2017-12-30T21:16:10.971Z,26.85
2017-12-30T21:18:51.528Z,32.55
2017-12-30T21:21:18.102Z,35.88
2017-12-30T21:23:44.929Z,26.55
2017-12-30T21:26:13.432Z,23.90
2017-12-30T21:31:23.381Z,24.45
2017-12-30T21:33:54.480Z,23.15
2017-12-30T22:49:44.076Z,46.55
2017-12-30T22:52:10.881Z,42.40
2017-12-30T22:54:41.769Z,33.08
2017-12-30T22:57:08.754Z,36.75
2017-12-30T22:59:36.931Z,37.67
2017-12-30T23:06:57.072Z,70.05
2017-12-30T23:09:25.537Z,33.03
2017-12-30T23:11:56.981Z,38.15
2017-12-30T23:14:23.523Z,37.10
2017-12-30T23:16:50.963Z,43.90
2017-12-30T23:19:17.900Z,41.55
2017-12-30T23:21:44.152Z,31.08
2017-12-30T23:24:11.250Z,32.42
2017-12-30T23:26:37.479Z,42.95
2017-12-30T23:29:03.696Z,29.50
2017-12-30T23:31:29.934Z,29.37
2017-12-30T23:33:56.290Z,28.80
2017-12-30T23:36:24.307Z,24.98
2017-12-30T23:38:50.527Z,32.03
2017-12-30T23:41:17.055Z,42.13
2017-12-30T23:43:43.298Z,30.20
2017-12-30T23:46:11.042Z,32.88
2017-12-30T23:48:39.302Z,30.12
2017-12-30T23:51:05.559Z,29.63
2017-12-30T23:53:31.925Z,29.02
2017-12-30T23:55:58.865Z,25.92
2017-12-30T23:58:25.959Z,24.08
